sensor_id;sensor_type;location;lat;lon;timestamp;temperature;humidity
68385;DHT22;55336;43.062;25.626;2022-09-09T00:02:33;18.00;96.30
68385;DHT22;55336;43.062;25.626;2022-09-09T00:05:09;17.90;97.00
68385;DHT22;55336;43.062;25.626;2022-09-09T00:07:51;17.90;98.10
68385;DHT22;55336;43.062;25.626;2022-09-09T00:10:38;17.80;98.80
68385;DHT22;55336;43.062;25.626;2022-09-09T00:13:22;17.60;99.90
68385;DHT22;55336;43.062;25.626;2022-09-09T00:18:57;17.60;99.90
68385;DHT22;55336;43.062;25.626;2022-09-09T00:21:37;17.50;99.90
68385;DHT22;55336;43.062;25.626;2022-09-09T00:27:29;17.40;99.90
68385;DHT22;55336;43.062;25.626;2022-09-09T00:30:12;17.30;99.90
68385;DHT22;55336;43.062;25.626;2022-09-09T00:32:38;17.30;99.90
68385;DHT22;55336;43.062;25.626;2022-09-09T00:35:38;17.30;99.90
68385;DHT22;55336;43.062;25.626;2022-09-09T00:38:15;17.30;99.90
68385;DHT22;55336;43.062;25.626;2022-09-09T00:41:02;17.20;99.90
68385;DHT22;55336;43.062;25.626;2022-09-09T00:43:30;17.20;99.90
68385;DHT22;55336;43.062;25.626;2022-09-09T00:46:15;17.20;99.90
68385;DHT22;55336;43.062;25.626;2022-09-09T00:48:59;17.20;99.90
68385;DHT22;55336;43.062;25.626;2022-09-09T00:52:00;17.20;99.90
68385;DHT22;55336;43.062;25.626;2022-09-09T00:57:19;17.10;99.90
68385;DHT22;55336;43.062;25.626;2022-09-09T00:59:54;17.10;99.90
68385;DHT22;55336;43.062;25.626;2022-09-09T01:07:47;17.00;99.90
68385;DHT22;55336;43.062;25.626;2022-09-09T01:10:24;16.90;99.90
68385;DHT22;55336;43.062;25.626;2022-09-09T01:12:53;16.90;99.90
68385;DHT22;55336;43.062;25.626;2022-09-09T01:15:31;16.90;99.90
68385;DHT22;55336;43.062;25.626;2022-09-09T01:18:17;16.80;99.90
68385;DHT22;55336;43.062;25.626;2022-09-09T01:29:00;16.80;99.90
68385;DHT22;55336;43.062;25.626;2022-09-09T01:31:30;16.80;99.90
68385;DHT22;55336;43.062;25.626;2022-09-09T01:33:56;16.80;99.90
68385;DHT22;55336;43.062;25.626;2022-09-09T01:36:33;16.80;99.90
68385;DHT22;55336;43.062;25.626;2022-09-09T01:39:00;16.70;99.90
68385;DHT22;55336;43.062;25.626;2022-09-09T01:41:27;16.70;99.90
68385;DHT22;55336;43.062;25.626;2022-09-09T01:43:54;16.70;99.90
68385;DHT22;55336;43.062;25.626;2022-09-09T01:46:22;16.70;99.90
68385;DHT22;55336;43.062;25.626;2022-09-09T01:48:52;16.70;99.90
68385;DHT22;55336;43.062;25.626;2022-09-09T01:51:19;16.70;99.90
68385;DHT22;55336;43.062;25.626;2022-09-09T01:53:45;16.70;99.90
68385;DHT22;55336;43.062;25.626;2022-09-09T01:56:23;16.60;99.90
68385;DHT22;55336;43.062;25.626;2022-09-09T02:04:41;16.60;99.90
68385;DHT22;55336;43.062;25.626;2022-09-09T02:07:38;16.60;99.90
68385;DHT22;55336;43.062;25.626;2022-09-09T02:10:24;16.60;99.90
68385;DHT22;55336;43.062;25.626;2022-09-09T02:13:00;16.60;99.90
68385;DHT22;55336;43.062;25.626;2022-09-09T02:18:04;16.50;99.90
68385;DHT22;55336;43.062;25.626;2022-09-09T02:20:34;16.50;99.90
68385;DHT22;55336;43.062;25.626;2022-09-09T02:23:02;16.50;99.90
68385;DHT22;55336;43.062;25.626;2022-09-09T02:25:29;16.50;99.90
68385;DHT22;55336;43.062;25.626;2022-09-09T02:27:56;16.40;99.90
68385;DHT22;55336;43.062;25.626;2022-09-09T02:30:28;16.40;99.90
68385;DHT22;55336;43.062;25.626;2022-09-09T02:32:56;16.30;99.90
68385;DHT22;55336;43.062;25.626;2022-09-09T02:35:24;16.30;99.90
68385;DHT22;55336;43.062;25.626;2022-09-09T02:37:54;16.20;99.90
68385;DHT22;55336;43.062;25.626;2022-09-09T02:40:22;16.10;99.90
68385;DHT22;55336;43.062;25.626;2022-09-09T02:42:49;16.10;99.90
68385;DHT22;55336;43.062;25.626;2022-09-09T02:45:26;16.10;99.90
68385;DHT22;55336;43.062;25.626;2022-09-09T02:48:06;16.00;99.90
68385;DHT22;55336;43.062;25.626;2022-09-09T02:50:41;15.90;99.90
68385;DHT22;55336;43.062;25.626;2022-09-09T02:53:18;16.00;99.90
68385;DHT22;55336;43.062;25.626;2022-09-09T02:58:29;16.00;99.90
68385;DHT22;55336;43.062;25.626;2022-09-09T03:00:54;16.00;99.90
68385;DHT22;55336;43.062;25.626;2022-09-09T03:03:23;15.90;99.90
68385;DHT22;55336;43.062;25.626;2022-09-09T03:05:49;15.90;99.90
68385;DHT22;55336;43.062;25.626;2022-09-09T03:08:16;15.80;99.90
68385;DHT22;55336;43.062;25.626;2022-09-09T03:10:42;15.80;99.90
68385;DHT22;55336;43.062;25.626;2022-09-09T03:13:08;15.70;99.90
68385;DHT22;55336;43.062;25.626;2022-09-09T03:15:34;15.60;99.90
68385;DHT22;55336;43.062;25.626;2022-09-09T03:18:00;15.70;99.90
68385;DHT22;55336;43.062;25.626;2022-09-09T03:20:28;15.60;99.90
68385;DHT22;55336;43.062;25.626;2022-09-09T03:22:54;15.60;99.90
68385;DHT22;55336;43.062;25.626;2022-09-09T03:25:21;15.60;99.90
68385;DHT22;55336;43.062;25.626;2022-09-09T03:27:50;15.60;99.90
68385;DHT22;55336;43.062;25.626;2022-09-09T03:30:24;15.50;99.90
68385;DHT22;55336;43.062;25.626;2022-09-09T03:32:50;15.50;99.90
68385;DHT22;55336;43.062;25.626;2022-09-09T03:35:16;15.40;99.90
68385;DHT22;55336;43.062;25.626;2022-09-09T03:37:42;15.40;99.90
68385;DHT22;55336;43.062;25.626;2022-09-09T03:40:08;15.40;99.90
68385;DHT22;55336;43.062;25.626;2022-09-09T03:42:38;15.40;99.90
68385;DHT22;55336;43.062;25.626;2022-09-09T03:45:06;15.30;99.90
68385;DHT22;55336;43.062;25.626;2022-09-09T03:47:32;15.30;99.90
68385;DHT22;55336;43.062;25.626;2022-09-09T03:49:58;15.30;99.90
68385;DHT22;55336;43.062;25.626;2022-09-09T03:52:24;15.30;99.90
68385;DHT22;55336;43.062;25.626;2022-09-09T03:54:52;15.20;99.90
68385;DHT22;55336;43.062;25.626;2022-09-09T03:57:19;15.20;99.90
68385;DHT22;55336;43.062;25.626;2022-09-09T03:59:45;15.20;99.90
68385;DHT22;55336;43.062;25.626;2022-09-09T04:02:10;15.20;99.90
68385;DHT22;55336;43.062;25.626;2022-09-09T04:04:36;15.10;99.90
68385;DHT22;55336;43.062;25.626;2022-09-09T04:07:02;15.20;99.90
68385;DHT22;55336;43.062;25.626;2022-09-09T04:09:28;15.30;99.90
68385;DHT22;55336;43.062;25.626;2022-09-09T04:11:54;15.30;99.90
68385;DHT22;55336;43.062;25.626;2022-09-09T04:14:20;15.30;99.90
68385;DHT22;55336;43.062;25.626;2022-09-09T04:16:47;15.30;99.90
68385;DHT22;55336;43.062;25.626;2022-09-09T04:19:13;15.40;99.90
68385;DHT22;55336;43.062;25.626;2022-09-09T04:21:41;15.40;99.90
68385;DHT22;55336;43.062;25.626;2022-09-09T04:24:08;15.40;99.90
68385;DHT22;55336;43.062;25.626;2022-09-09T04:26:34;15.50;99.90
68385;DHT22;55336;43.062;25.626;2022-09-09T04:29:02;15.50;99.90
68385;DHT22;55336;43.062;25.626;2022-09-09T04:31:29;15.60;99.90
68385;DHT22;55336;43.062;25.626;2022-09-09T04:33:55;15.60;99.90
68385;DHT22;55336;43.062;25.626;2022-09-09T04:36:21;15.70;99.90
68385;DHT22;55336;43.062;25.626;2022-09-09T04:38:47;15.80;99.90
68385;DHT22;55336;43.062;25.626;2022-09-09T04:41:14;15.90;99.90
68385;DHT22;55336;43.062;25.626;2022-09-09T04:43:41;15.90;99.90
68385;DHT22;55336;43.062;25.626;2022-09-09T04:46:06;16.00;99.90
68385;DHT22;55336;43.062;25.626;2022-09-09T04:48:32;16.10;99.90
68385;DHT22;55336;43.062;25.626;2022-09-09T04:51:00;16.20;99.90
68385;DHT22;55336;43.062;25.626;2022-09-09T04:53:27;16.30;99.90
68385;DHT22;55336;43.062;25.626;2022-09-09T04:56:00;16.40;99.90
68385;DHT22;55336;43.062;25.626;2022-09-09T04:58:26;16.60;99.90
68385;DHT22;55336;43.062;25.626;2022-09-09T05:00:52;16.70;99.90
68385;DHT22;55336;43.062;25.626;2022-09-09T05:03:18;16.80;99.90
68385;DHT22;55336;43.062;25.626;2022-09-09T05:05:44;16.90;99.90
68385;DHT22;55336;43.062;25.626;2022-09-09T05:08:10;17.00;99.90
68385;DHT22;55336;43.062;25.626;2022-09-09T05:10:37;17.20;99.90
68385;DHT22;55336;43.062;25.626;2022-09-09T05:13:03;17.40;99.90
68385;DHT22;55336;43.062;25.626;2022-09-09T05:15:30;17.50;99.90
68385;DHT22;55336;43.062;25.626;2022-09-09T05:17:59;17.70;99.90
68385;DHT22;55336;43.062;25.626;2022-09-09T05:20:26;17.80;99.90
68385;DHT22;55336;43.062;25.626;2022-09-09T05:22:56;18.00;99.90
68385;DHT22;55336;43.062;25.626;2022-09-09T05:25:23;18.20;99.90
68385;DHT22;55336;43.062;25.626;2022-09-09T05:27:51;18.40;99.90
68385;DHT22;55336;43.062;25.626;2022-09-09T05:30:19;18.70;99.90
68385;DHT22;55336;43.062;25.626;2022-09-09T05:32:45;18.80;99.90
68385;DHT22;55336;43.062;25.626;2022-09-09T05:35:12;19.10;99.90
68385;DHT22;55336;43.062;25.626;2022-09-09T05:37:38;19.30;99.90
68385;DHT22;55336;43.062;25.626;2022-09-09T05:40:07;19.50;99.90
68385;DHT22;55336;43.062;25.626;2022-09-09T05:42:33;19.90;99.90
68385;DHT22;55336;43.062;25.626;2022-09-09T05:44:59;20.10;99.90
68385;DHT22;55336;43.062;25.626;2022-09-09T05:47:25;20.40;99.90
68385;DHT22;55336;43.062;25.626;2022-09-09T05:49:54;20.70;99.90
68385;DHT22;55336;43.062;25.626;2022-09-09T05:52:20;21.10;99.90
68385;DHT22;55336;43.062;25.626;2022-09-09T05:54:46;21.50;99.90
68385;DHT22;55336;43.062;25.626;2022-09-09T05:57:12;22.00;99.90
68385;DHT22;55336;43.062;25.626;2022-09-09T05:59:38;22.50;99.90
68385;DHT22;55336;43.062;25.626;2022-09-09T06:02:04;23.20;93.60
68385;DHT22;55336;43.062;25.626;2022-09-09T06:04:30;23.80;90.00
68385;DHT22;55336;43.062;25.626;2022-09-09T06:06:56;24.50;81.80
68385;DHT22;55336;43.062;25.626;2022-09-09T06:09:22;25.00;76.40
68385;DHT22;55336;43.062;25.626;2022-09-09T06:11:48;25.60;69.10
68385;DHT22;55336;43.062;25.626;2022-09-09T06:14:13;26.10;66.60
68385;DHT22;55336;43.062;25.626;2022-09-09T06:16:40;26.40;62.80
68385;DHT22;55336;43.062;25.626;2022-09-09T06:19:08;26.90;60.40
68385;DHT22;55336;43.062;25.626;2022-09-09T06:21:35;27.20;60.80
68385;DHT22;55336;43.062;25.626;2022-09-09T06:24:04;27.50;55.80
68385;DHT22;55336;43.062;25.626;2022-09-09T06:26:34;27.80;54.90
68385;DHT22;55336;43.062;25.626;2022-09-09T06:29:01;28.20;52.50
68385;DHT22;55336;43.062;25.626;2022-09-09T06:31:30;28.00;53.40
68385;DHT22;55336;43.062;25.626;2022-09-09T06:33:58;28.30;55.80
68385;DHT22;55336;43.062;25.626;2022-09-09T06:36:31;28.00;52.20
68385;DHT22;55336;43.062;25.626;2022-09-09T06:38:58;28.00;53.10
68385;DHT22;55336;43.062;25.626;2022-09-09T06:41:26;28.70;53.40
68385;DHT22;55336;43.062;25.626;2022-09-09T06:43:53;29.20;48.80
68385;DHT22;55336;43.062;25.626;2022-09-09T06:46:19;29.40;49.10
68385;DHT22;55336;43.062;25.626;2022-09-09T06:48:45;29.10;47.60
68385;DHT22;55336;43.062;25.626;2022-09-09T06:51:22;28.90;48.00
68385;DHT22;55336;43.062;25.626;2022-09-09T06:53:49;29.10;49.60
68385;DHT22;55336;43.062;25.626;2022-09-09T06:58:50;28.90;50.20
68385;DHT22;55336;43.062;25.626;2022-09-09T07:01:19;29.10;48.60
68385;DHT22;55336;43.062;25.626;2022-09-09T07:03:47;29.90;44.90
68385;DHT22;55336;43.062;25.626;2022-09-09T07:06:15;29.90;44.70
68385;DHT22;55336;43.062;25.626;2022-09-09T07:08:43;29.40;48.40
68385;DHT22;55336;43.062;25.626;2022-09-09T07:11:10;29.10;48.70
68385;DHT22;55336;43.062;25.626;2022-09-09T07:13:38;29.50;44.80
68385;DHT22;55336;43.062;25.626;2022-09-09T07:16:08;30.20;42.60
68385;DHT22;55336;43.062;25.626;2022-09-09T07:18:35;30.50;43.00
68385;DHT22;55336;43.062;25.626;2022-09-09T07:21:02;30.30;46.70
68385;DHT22;55336;43.062;25.626;2022-09-09T07:23:29;30.50;47.60
68385;DHT22;55336;43.062;25.626;2022-09-09T07:25:56;31.30;41.30
68385;DHT22;55336;43.062;25.626;2022-09-09T07:28:22;32.00;38.30
68385;DHT22;55336;43.062;25.626;2022-09-09T07:30:59;32.60;37.60
68385;DHT22;55336;43.062;25.626;2022-09-09T07:33:25;32.80;35.70
68385;DHT22;55336;43.062;25.626;2022-09-09T07:35:52;32.00;34.80
68385;DHT22;55336;43.062;25.626;2022-09-09T07:38:19;32.40;38.50
68385;DHT22;55336;43.062;25.626;2022-09-09T07:40:46;33.00;38.30
68385;DHT22;55336;43.062;25.626;2022-09-09T07:43:12;33.20;34.40
68385;DHT22;55336;43.062;25.626;2022-09-09T07:45:38;33.40;36.30
68385;DHT22;55336;43.062;25.626;2022-09-09T07:48:05;33.30;33.40
68385;DHT22;55336;43.062;25.626;2022-09-09T07:50:31;33.80;32.80
68385;DHT22;55336;43.062;25.626;2022-09-09T07:52:57;34.40;31.80
68385;DHT22;55336;43.062;25.626;2022-09-09T07:55:24;34.30;36.10
68385;DHT22;55336;43.062;25.626;2022-09-09T07:57:51;34.70;30.60
68385;DHT22;55336;43.062;25.626;2022-09-09T08:00:17;34.20;32.10
68385;DHT22;55336;43.062;25.626;2022-09-09T08:02:44;33.90;30.90
68385;DHT22;55336;43.062;25.626;2022-09-09T08:05:12;33.40;31.40
68385;DHT22;55336;43.062;25.626;2022-09-09T08:07:38;32.80;32.30
68385;DHT22;55336;43.062;25.626;2022-09-09T08:10:04;32.40;33.60
68385;DHT22;55336;43.062;25.626;2022-09-09T08:12:32;32.90;31.60
68385;DHT22;55336;43.062;25.626;2022-09-09T08:14:57;33.00;31.40
68385;DHT22;55336;43.062;25.626;2022-09-09T08:17:23;33.30;31.90
68385;DHT22;55336;43.062;25.626;2022-09-09T08:19:49;33.70;30.80
68385;DHT22;55336;43.062;25.626;2022-09-09T08:22:15;33.80;29.10
68385;DHT22;55336;43.062;25.626;2022-09-09T08:24:41;33.70;29.90
68385;DHT22;55336;43.062;25.626;2022-09-09T08:27:08;33.70;29.70
68385;DHT22;55336;43.062;25.626;2022-09-09T08:29:35;33.60;30.70
68385;DHT22;55336;43.062;25.626;2022-09-09T08:32:03;33.10;31.00
68385;DHT22;55336;43.062;25.626;2022-09-09T08:34:30;33.30;32.00
68385;DHT22;55336;43.062;25.626;2022-09-09T08:36:57;34.10;31.70
68385;DHT22;55336;43.062;25.626;2022-09-09T08:39:23;34.10;29.40
68385;DHT22;55336;43.062;25.626;2022-09-09T08:52:12;34.30;29.40
68385;DHT22;55336;43.062;25.626;2022-09-09T08:54:41;34.10;30.20
68385;DHT22;55336;43.062;25.626;2022-09-09T08:57:18;33.90;29.50
68385;DHT22;55336;43.062;25.626;2022-09-09T08:59:46;34.30;31.40
68385;DHT22;55336;43.062;25.626;2022-09-09T09:02:48;34.60;29.10
68385;DHT22;55336;43.062;25.626;2022-09-09T09:05:28;35.00;29.00
68385;DHT22;55336;43.062;25.626;2022-09-09T09:08:27;35.60;27.50
68385;DHT22;55336;43.062;25.626;2022-09-09T09:10:56;35.10;27.90
68385;DHT22;55336;43.062;25.626;2022-09-09T09:13:47;34.90;27.30
68385;DHT22;55336;43.062;25.626;2022-09-09T09:19:03;35.00;28.40
68385;DHT22;55336;43.062;25.626;2022-09-09T09:21:44;35.70;29.00
68385;DHT22;55336;43.062;25.626;2022-09-09T09:24:23;35.70;29.40
68385;DHT22;55336;43.062;25.626;2022-09-09T09:26:51;35.10;28.10
68385;DHT22;55336;43.062;25.626;2022-09-09T09:29:19;34.90;28.40
68385;DHT22;55336;43.062;25.626;2022-09-09T09:31:57;35.00;29.00
68385;DHT22;55336;43.062;25.626;2022-09-09T09:34:24;35.10;28.50
68385;DHT22;55336;43.062;25.626;2022-09-09T09:36:57;35.20;28.10
68385;DHT22;55336;43.062;25.626;2022-09-09T09:39:26;35.20;28.50
68385;DHT22;55336;43.062;25.626;2022-09-09T09:41:53;35.20;27.80
68385;DHT22;55336;43.062;25.626;2022-09-09T09:44:26;35.50;28.10
68385;DHT22;55336;43.062;25.626;2022-09-09T09:46:52;35.90;26.50
68385;DHT22;55336;43.062;25.626;2022-09-09T09:49:18;35.90;26.30
68385;DHT22;55336;43.062;25.626;2022-09-09T09:51:44;35.60;26.80
68385;DHT22;55336;43.062;25.626;2022-09-09T09:54:18;35.40;27.00
68385;DHT22;55336;43.062;25.626;2022-09-09T09:56:48;35.10;28.00
68385;DHT22;55336;43.062;25.626;2022-09-09T09:59:33;35.40;27.60
68385;DHT22;55336;43.062;25.626;2022-09-09T10:02:26;35.50;26.90
68385;DHT22;55336;43.062;25.626;2022-09-09T10:05:03;35.90;26.00
68385;DHT22;55336;43.062;25.626;2022-09-09T10:07:30;36.00;26.50
68385;DHT22;55336;43.062;25.626;2022-09-09T10:09:57;35.90;26.30
68385;DHT22;55336;43.062;25.626;2022-09-09T10:12:34;35.70;27.00
68385;DHT22;55336;43.062;25.626;2022-09-09T10:20:57;35.70;28.40
68385;DHT22;55336;43.062;25.626;2022-09-09T10:34:59;35.70;28.40
68385;DHT22;55336;43.062;25.626;2022-09-09T10:42:37;35.90;27.30
68385;DHT22;55336;43.062;25.626;2022-09-09T10:45:20;36.60;26.80
68385;DHT22;55336;43.062;25.626;2022-09-09T10:56:10;37.00;26.20
68385;DHT22;55336;43.062;25.626;2022-09-09T11:01:28;36.80;26.10
68385;DHT22;55336;43.062;25.626;2022-09-09T11:04:09;37.20;25.00
68385;DHT22;55336;43.062;25.626;2022-09-09T11:06:41;36.90;24.60
68385;DHT22;55336;43.062;25.626;2022-09-09T11:09:17;36.90;25.00
68385;DHT22;55336;43.062;25.626;2022-09-09T11:11:55;36.90;28.60
68385;DHT22;55336;43.062;25.626;2022-09-09T11:14:43;37.10;26.00
68385;DHT22;55336;43.062;25.626;2022-09-09T11:17:18;37.00;25.10
68385;DHT22;55336;43.062;25.626;2022-09-09T11:19:45;37.10;25.30
68385;DHT22;55336;43.062;25.626;2022-09-09T11:22:31;37.40;24.90
68385;DHT22;55336;43.062;25.626;2022-09-09T11:27:44;37.40;25.00
68385;DHT22;55336;43.062;25.626;2022-09-09T11:38:27;36.90;26.20
68385;DHT22;55336;43.062;25.626;2022-09-09T11:41:00;36.90;24.80
68385;DHT22;55336;43.062;25.626;2022-09-09T11:43:28;37.00;26.80
68385;DHT22;55336;43.062;25.626;2022-09-09T11:45:57;36.50;25.40
68385;DHT22;55336;43.062;25.626;2022-09-09T11:51:04;34.60;29.00
68385;DHT22;55336;43.062;25.626;2022-09-09T11:53:31;34.20;29.90
68385;DHT22;55336;43.062;25.626;2022-09-09T11:56:10;34.40;30.10
68385;DHT22;55336;43.062;25.626;2022-09-09T11:58:44;35.50;28.50
68385;DHT22;55336;43.062;25.626;2022-09-09T12:06:33;37.00;25.20
68385;DHT22;55336;43.062;25.626;2022-09-09T12:09:33;37.00;25.00
68385;DHT22;55336;43.062;25.626;2022-09-09T12:17:19;37.20;24.50
68385;DHT22;55336;43.062;25.626;2022-09-09T12:20:14;37.20;26.40
68385;DHT22;55336;43.062;25.626;2022-09-09T12:28:50;37.10;25.50
68385;DHT22;55336;43.062;25.626;2022-09-09T12:31:20;37.00;27.30
68385;DHT22;55336;43.062;25.626;2022-09-09T12:33:47;37.90;24.20
68385;DHT22;55336;43.062;25.626;2022-09-09T12:36:23;37.90;23.20
68385;DHT22;55336;43.062;25.626;2022-09-09T12:38:50;38.00;24.60
68385;DHT22;55336;43.062;25.626;2022-09-09T12:41:23;38.20;23.10
68385;DHT22;55336;43.062;25.626;2022-09-09T12:43:51;37.80;23.40
68385;DHT22;55336;43.062;25.626;2022-09-09T12:46:44;36.80;24.80
68385;DHT22;55336;43.062;25.626;2022-09-09T12:52:05;35.20;28.50
68385;DHT22;55336;43.062;25.626;2022-09-09T12:54:36;34.60;29.00
68385;DHT22;55336;43.062;25.626;2022-09-09T12:57:03;34.20;31.20
68385;DHT22;55336;43.062;25.626;2022-09-09T12:59:40;33.70;31.70
68385;DHT22;55336;43.062;25.626;2022-09-09T13:02:25;33.40;34.10
68385;DHT22;55336;43.062;25.626;2022-09-09T13:04:52;33.00;33.30
68385;DHT22;55336;43.062;25.626;2022-09-09T13:07:20;32.90;33.60
68385;DHT22;55336;43.062;25.626;2022-09-09T13:09:48;32.60;33.70
68385;DHT22;55336;43.062;25.626;2022-09-09T13:12:21;32.50;34.80
68385;DHT22;55336;43.062;25.626;2022-09-09T13:14:55;32.40;36.80
68385;DHT22;55336;43.062;25.626;2022-09-09T13:17:24;32.30;36.20
68385;DHT22;55336;43.062;25.626;2022-09-09T13:19:51;32.10;35.50
68385;DHT22;55336;43.062;25.626;2022-09-09T13:22:35;32.00;36.40
68385;DHT22;55336;43.062;25.626;2022-09-09T13:25:17;31.90;36.30
68385;DHT22;55336;43.062;25.626;2022-09-09T13:30:36;31.70;37.30
68385;DHT22;55336;43.062;25.626;2022-09-09T13:35:53;31.50;37.20
68385;DHT22;55336;43.062;25.626;2022-09-09T13:38:23;31.30;38.80
68385;DHT22;55336;43.062;25.626;2022-09-09T13:43:34;31.20;38.50
68385;DHT22;55336;43.062;25.626;2022-09-09T13:49:02;31.00;39.30
68385;DHT22;55336;43.062;25.626;2022-09-09T13:51:44;30.90;39.30
68385;DHT22;55336;43.062;25.626;2022-09-09T13:54:14;30.90;41.10
68385;DHT22;55336;43.062;25.626;2022-09-09T13:56:41;30.80;40.80
68385;DHT22;55336;43.062;25.626;2022-09-09T13:59:16;30.80;39.70
68385;DHT22;55336;43.062;25.626;2022-09-09T14:01:45;30.90;39.80
68385;DHT22;55336;43.062;25.626;2022-09-09T14:04:11;31.00;39.90
68385;DHT22;55336;43.062;25.626;2022-09-09T14:06:38;31.30;39.70
68385;DHT22;55336;43.062;25.626;2022-09-09T14:09:10;31.50;39.80
68385;DHT22;55336;43.062;25.626;2022-09-09T14:11:37;32.00;38.70
68385;DHT22;55336;43.062;25.626;2022-09-09T14:14:03;32.20;37.30
68385;DHT22;55336;43.062;25.626;2022-09-09T14:16:29;32.40;36.70
68385;DHT22;55336;43.062;25.626;2022-09-09T14:18:55;32.50;36.50
68385;DHT22;55336;43.062;25.626;2022-09-09T14:21:25;32.10;37.50
68385;DHT22;55336;43.062;25.626;2022-09-09T14:23:52;32.00;37.80
68385;DHT22;55336;43.062;25.626;2022-09-09T14:26:21;32.00;38.30
68385;DHT22;55336;43.062;25.626;2022-09-09T14:28:47;32.00;40.60
68385;DHT22;55336;43.062;25.626;2022-09-09T14:31:14;31.70;38.90
68385;DHT22;55336;43.062;25.626;2022-09-09T14:33:40;31.50;38.90
68385;DHT22;55336;43.062;25.626;2022-09-09T14:36:06;31.40;38.90
68385;DHT22;55336;43.062;25.626;2022-09-09T14:38:34;31.10;39.70
68385;DHT22;55336;43.062;25.626;2022-09-09T14:41:00;30.90;43.70
68385;DHT22;55336;43.062;25.626;2022-09-09T14:43:29;30.50;44.60
68385;DHT22;55336;43.062;25.626;2022-09-09T14:46:07;29.80;46.50
68385;DHT22;55336;43.062;25.626;2022-09-09T14:48:34;29.50;47.60
68385;DHT22;55336;43.062;25.626;2022-09-09T14:51:08;29.30;49.30
68385;DHT22;55336;43.062;25.626;2022-09-09T14:53:34;29.00;50.20
68385;DHT22;55336;43.062;25.626;2022-09-09T14:56:08;29.20;47.50
68385;DHT22;55336;43.062;25.626;2022-09-09T14:58:35;29.40;46.80
68385;DHT22;55336;43.062;25.626;2022-09-09T15:01:15;29.50;45.60
68385;DHT22;55336;43.062;25.626;2022-09-09T15:03:43;29.60;45.70
68385;DHT22;55336;43.062;25.626;2022-09-09T15:06:14;29.60;49.20
68385;DHT22;55336;43.062;25.626;2022-09-09T15:08:42;29.00;50.80
68385;DHT22;55336;43.062;25.626;2022-09-09T15:11:10;28.90;49.20
68385;DHT22;55336;43.062;25.626;2022-09-09T15:13:37;29.10;46.60
68385;DHT22;55336;43.062;25.626;2022-09-09T15:16:07;29.20;48.70
68385;DHT22;55336;43.062;25.626;2022-09-09T15:18:34;29.30;46.80
68385;DHT22;55336;43.062;25.626;2022-09-09T15:21:05;29.20;49.00
68385;DHT22;55336;43.062;25.626;2022-09-09T15:23:34;28.90;52.20
68385;DHT22;55336;43.062;25.626;2022-09-09T15:26:01;28.60;53.30
68385;DHT22;55336;43.062;25.626;2022-09-09T15:28:28;28.70;50.70
68385;DHT22;55336;43.062;25.626;2022-09-09T15:30:54;28.80;52.10
68385;DHT22;55336;43.062;25.626;2022-09-09T15:33:21;28.60;53.90
68385;DHT22;55336;43.062;25.626;2022-09-09T15:35:47;28.30;56.30
68385;DHT22;55336;43.062;25.626;2022-09-09T15:38:14;28.20;56.80
68385;DHT22;55336;43.062;25.626;2022-09-09T15:40:40;28.10;58.80
68385;DHT22;55336;43.062;25.626;2022-09-09T15:43:07;28.10;57.00
68385;DHT22;55336;43.062;25.626;2022-09-09T15:45:35;27.70;59.70
68385;DHT22;55336;43.062;25.626;2022-09-09T15:48:02;27.80;58.10
68385;DHT22;55336;43.062;25.626;2022-09-09T15:50:28;27.80;58.00
68385;DHT22;55336;43.062;25.626;2022-09-09T15:52:58;27.80;57.70
68385;DHT22;55336;43.062;25.626;2022-09-09T15:55:24;27.70;58.10
68385;DHT22;55336;43.062;25.626;2022-09-09T15:57:51;27.60;57.80
68385;DHT22;55336;43.062;25.626;2022-09-09T16:00:19;27.50;59.00
68385;DHT22;55336;43.062;25.626;2022-09-09T16:02:47;27.40;60.10
68385;DHT22;55336;43.062;25.626;2022-09-09T16:05:13;27.30;61.30
68385;DHT22;55336;43.062;25.626;2022-09-09T16:07:39;27.20;62.20
68385;DHT22;55336;43.062;25.626;2022-09-09T16:10:06;27.10;63.30
68385;DHT22;55336;43.062;25.626;2022-09-09T16:12:32;26.90;63.20
68385;DHT22;55336;43.062;25.626;2022-09-09T16:14:59;26.80;63.60
68385;DHT22;55336;43.062;25.626;2022-09-09T16:17:25;26.70;63.90
68385;DHT22;55336;43.062;25.626;2022-09-09T16:19:51;26.60;65.80
68385;DHT22;55336;43.062;25.626;2022-09-09T16:22:18;26.30;67.30
68385;DHT22;55336;43.062;25.626;2022-09-09T16:24:44;26.30;67.30
68385;DHT22;55336;43.062;25.626;2022-09-09T16:27:10;26.10;68.80
68385;DHT22;55336;43.062;25.626;2022-09-09T16:29:37;26.00;70.10
68385;DHT22;55336;43.062;25.626;2022-09-09T16:32:02;25.90;69.20
68385;DHT22;55336;43.062;25.626;2022-09-09T16:34:28;25.90;70.10
68385;DHT22;55336;43.062;25.626;2022-09-09T16:36:54;25.80;69.80
68385;DHT22;55336;43.062;25.626;2022-09-09T16:39:20;25.80;70.40
68385;DHT22;55336;43.062;25.626;2022-09-09T16:41:47;25.70;70.00
68385;DHT22;55336;43.062;25.626;2022-09-09T16:44:15;25.70;70.10
68385;DHT22;55336;43.062;25.626;2022-09-09T16:46:43;25.60;72.60
68385;DHT22;55336;43.062;25.626;2022-09-09T16:49:11;25.40;73.90
68385;DHT22;55336;43.062;25.626;2022-09-09T16:51:45;25.40;74.30
68385;DHT22;55336;43.062;25.626;2022-09-09T16:54:13;25.30;74.50
68385;DHT22;55336;43.062;25.626;2022-09-09T16:56:41;25.30;74.70
68385;DHT22;55336;43.062;25.626;2022-09-09T16:59:16;25.20;74.90
68385;DHT22;55336;43.062;25.626;2022-09-09T17:01:44;25.20;76.20
68385;DHT22;55336;43.062;25.626;2022-09-09T17:04:12;24.90;79.20
68385;DHT22;55336;43.062;25.626;2022-09-09T17:06:39;24.90;79.10
68385;DHT22;55336;43.062;25.626;2022-09-09T17:09:10;24.90;77.90
68385;DHT22;55336;43.062;25.626;2022-09-09T17:11:40;24.90;78.70
68385;DHT22;55336;43.062;25.626;2022-09-09T17:14:08;24.80;79.50
68385;DHT22;55336;43.062;25.626;2022-09-09T17:16:36;24.80;80.30
68385;DHT22;55336;43.062;25.626;2022-09-09T17:19:05;24.70;80.70
68385;DHT22;55336;43.062;25.626;2022-09-09T17:21:32;24.60;81.60
68385;DHT22;55336;43.062;25.626;2022-09-09T17:23:58;24.60;83.00
68385;DHT22;55336;43.062;25.626;2022-09-09T17:26:28;24.40;82.60
68385;DHT22;55336;43.062;25.626;2022-09-09T17:28:55;24.40;84.70
68385;DHT22;55336;43.062;25.626;2022-09-09T17:31:24;24.30;86.30
68385;DHT22;55336;43.062;25.626;2022-09-09T17:33:51;24.30;86.00
68385;DHT22;55336;43.062;25.626;2022-09-09T17:36:25;24.20;85.20
68385;DHT22;55336;43.062;25.626;2022-09-09T17:38:52;24.10;87.90
68385;DHT22;55336;43.062;25.626;2022-09-09T17:41:23;24.00;87.20